Time;durP1;ratioP1;P1;durP2;ratioP2;P2;SDS_P1;SDS_P2;PMS_P1;PMS_P2;Temp;Humidity;BMP_temperature;BMP_pressure;BME280_temperature;BME280_humidity;BME280_pressure;Samples;Min_cycle;Max_cycle;Signal;HPM_P1;HPM_P2
2021/05/19 00:02:07;;;;;;;12.02;1.27;;;16.40;74.20;;;;;;5115514;28;20480;-66
2021/05/19 00:04:33;;;;;;;6.22;1.45;;;16.40;74.50;;;;;;5115697;28;20380;-66
2021/05/19 00:06:58;;;;;;;5.50;1.40;;;16.40;74.60;;;;;;5115544;28;20484;-66
2021/05/19 00:09:24;;;;;;;6.18;1.23;;;16.30;74.70;;;;;;5115360;27;20528;-66
2021/05/19 00:11:50;;;;;;;5.47;1.30;;;16.30;75.00;;;;;;5114376;27;20032;-66
2021/05/19 00:14:17;;;;;;;10.57;1.45;;;16.30;75.50;;;;;;5115198;28;20033;-66
2021/05/19 00:16:45;;;;;;;6.45;1.50;;;16.30;74.90;;;;;;5115263;28;20022;-66
2021/05/19 00:19:11;;;;;;;5.22;1.40;;;16.20;75.10;;;;;;5115199;28;20073;-66
2021/05/19 00:21:37;;;;;;;7.82;1.50;;;16.20;75.10;;;;;;5114800;28;20391;-66
2021/05/19 00:24:07;;;;;;;4.63;1.20;;;16.20;75.50;;;;;;5114495;28;20027;-67
2021/05/19 00:26:33;;;;;;;6.07;1.30;;;16.20;75.70;;;;;;5114899;28;20039;-67
2021/05/19 00:28:59;;;;;;;7.32;1.67;;;16.10;75.60;;;;;;5114910;28;20443;-66
2021/05/19 00:31:30;;;;;;;3.53;1.08;;;16.10;76.00;;;;;;5115097;28;20046;-66
2021/05/19 00:33:56;;;;;;;6.60;1.65;;;16.10;76.70;;;;;;5114630;28;20464;-66
2021/05/19 00:36:21;;;;;;;4.32;1.30;;;16.10;76.90;;;;;;5114883;28;20034;-66
2021/05/19 00:38:47;;;;;;;7.28;1.60;;;16.00;76.70;;;;;;5114690;28;20566;-66
2021/05/19 00:41:13;;;;;;;2.90;1.30;;;16.00;77.10;;;;;;5114762;28;20023;-66
2021/05/19 00:43:39;;;;;;;5.50;1.80;;;16.00;77.40;;;;;;5114916;28;20027;-66
2021/05/19 00:46:06;;;;;;;7.90;1.70;;;16.10;77.50;;;;;;5113815;28;20035;-66
2021/05/19 00:48:33;;;;;;;6.00;1.88;;;16.00;77.90;;;;;;5114537;28;20020;-66
2021/05/19 00:50:59;;;;;;;5.70;1.40;;;16.00;77.40;;;;;;5114350;28;20520;-66
2021/05/19 00:53:24;;;;;;;11.02;1.40;;;16.00;77.60;;;;;;5114373;28;20055;-66
2021/05/19 00:55:50;;;;;;;9.20;1.48;;;16.00;77.70;;;;;;5114480;28;20039;-66
2021/05/19 00:58:16;;;;;;;7.07;1.42;;;16.00;77.90;;;;;;5112951;28;20035;-66
2021/05/19 01:00:42;;;;;;;6.90;1.45;;;16.00;77.90;;;;;;5110900;28;20650;-66
2021/05/19 01:03:08;;;;;;;2.83;0.90;;;15.90;78.10;;;;;;5110264;28;20034;-66
2021/05/19 01:10:51;;;;;;;5.80;1.10;;;15.80;77.80;;;;;;5113297;28;20403;-66
2021/05/19 01:13:17;;;;;;;7.55;1.13;;;15.80;78.10;;;;;;5113800;28;20047;-66
2021/05/19 01:15:44;;;;;;;6.18;1.10;;;15.80;77.70;;;;;;5114082;28;20076;-66
2021/05/19 01:18:09;;;;;;;7.78;1.17;;;15.70;77.80;;;;;;5113817;28;20036;-66
2021/05/19 01:20:36;;;;;;;5.63;1.20;;;15.70;77.80;;;;;;5113738;28;20034;-66
2021/05/19 01:23:04;;;;;;;2.75;0.98;;;15.70;77.70;;;;;;5113882;27;20035;-66
2021/05/19 01:25:30;;;;;;;4.85;1.02;;;15.60;77.10;;;;;;5114079;28;20504;-66
2021/05/19 01:28:00;;;;;;;3.92;1.00;;;15.60;77.30;;;;;;5113576;28;20053;-66
2021/05/19 01:30:28;;;;;;;4.53;1.13;;;15.50;77.60;;;;;;5113810;28;20114;-66
2021/05/19 01:32:54;;;;;;;5.65;1.10;;;15.40;77.40;;;;;;5113663;28;20028;-65
2021/05/19 01:35:21;;;;;;;6.50;1.00;;;15.50;77.70;;;;;;5113557;28;20019;-66
2021/05/19 01:37:47;;;;;;;6.35;1.20;;;15.40;78.50;;;;;;5113215;28;20027;-66
2021/05/19 01:40:15;;;;;;;4.45;1.00;;;15.40;78.60;;;;;;5112642;28;20019;-66
2021/05/19 01:42:44;;;;;;;5.55;0.98;;;15.40;78.10;;;;;;5113554;28;20022;-66
2021/05/19 01:45:10;;;;;;;3.90;1.17;;;15.40;78.10;;;;;;5112619;28;20027;-66
2021/05/19 01:47:46;;;;;;;4.78;0.80;;;15.40;77.70;;;;;;5112534;28;20034;-66
2021/05/19 01:50:13;;;;;;;4.68;0.98;;;15.30;77.60;;;;;;5113123;28;20080;-65
2021/05/19 01:52:41;;;;;;;3.00;0.80;;;15.40;77.40;;;;;;5113617;28;20039;-66
2021/05/19 01:55:08;;;;;;;6.30;1.15;;;15.40;76.60;;;;;;5113580;27;20035;-66
2021/05/19 01:57:34;;;;;;;10.57;1.58;;;15.30;76.90;;;;;;5112858;28;20047;-66
2021/05/19 02:00:01;;;;;;;4.45;1.05;;;15.20;77.40;;;;;;5113055;28;20030;-65
2021/05/19 02:02:27;;;;;;;9.52;1.50;;;15.20;78.30;;;;;;5113268;28;20027;-65
2021/05/19 02:04:57;;;;;;;10.90;1.55;;;15.20;78.10;;;;;;5111985;28;20498;-66
2021/05/19 02:07:23;;;;;;;6.78;1.10;;;15.10;78.60;;;;;;5113663;28;20495;-65
2021/05/19 02:09:48;;;;;;;2.15;0.82;;;15.10;78.70;;;;;;5113067;28;20031;-65
2021/05/19 02:12:15;;;;;;;7.28;1.30;;;15.10;78.90;;;;;;5111107;28;20445;-66
2021/05/19 02:14:41;;;;;;;4.20;1.10;;;15.10;79.30;;;;;;5112397;28;20020;-66
2021/05/19 02:17:07;;;;;;;4.57;0.93;;;15.00;79.60;;;;;;5111167;28;20028;-66
2021/05/19 02:19:33;;;;;;;4.18;1.00;;;15.10;79.60;;;;;;5113014;28;20056;-66
2021/05/19 02:21:59;;;;;;;3.53;0.98;;;15.00;79.70;;;;;;5112946;28;20122;-66
2021/05/19 02:24:25;;;;;;;5.03;0.98;;;15.10;79.60;;;;;;5113373;28;20102;-66
2021/05/19 02:26:51;;;;;;;10.82;1.17;;;15.00;79.40;;;;;;5113171;28;20387;-66
2021/05/19 02:29:17;;;;;;;7.35;0.95;;;15.00;79.50;;;;;;5113019;28;20020;-66
2021/05/19 02:31:44;;;;;;;2.13;0.98;;;15.00;79.40;;;;;;5113155;28;20036;-66
2021/05/19 02:34:10;;;;;;;4.05;0.90;;;14.90;79.70;;;;;;5113225;28;20020;-65
2021/05/19 02:36:37;;;;;;;2.70;1.02;;;14.90;79.50;;;;;;5113251;28;20072;-66
2021/05/19 02:39:06;;;;;;;5.07;1.10;;;14.90;79.70;;;;;;5113213;28;20031;-66
2021/05/19 02:41:31;;;;;;;2.03;0.80;;;14.90;79.90;;;;;;5112860;28;20027;-66
2021/05/19 02:43:57;;;;;;;4.38;1.10;;;14.90;80.40;;;;;;5112510;28;20087;-67
2021/05/19 02:46:23;;;;;;;4.00;1.08;;;14.90;79.90;;;;;;5111147;28;20035;-66
2021/05/19 02:48:48;;;;;;;5.93;1.13;;;14.90;80.50;;;;;;5112739;28;20605;-66
2021/05/19 02:51:17;;;;;;;3.28;0.98;;;14.90;80.50;;;;;;5111560;28;20027;-66
2021/05/19 02:53:42;;;;;;;4.45;1.00;;;14.80;80.40;;;;;;5112231;28;20028;-66
2021/05/19 02:56:08;;;;;;;4.22;1.05;;;14.90;80.20;;;;;;5112880;28;20039;-65
2021/05/19 02:58:34;;;;;;;3.13;1.00;;;14.90;79.90;;;;;;5112727;28;20035;-66
2021/05/19 03:01:00;;;;;;;1.73;0.75;;;14.80;80.10;;;;;;5112149;28;20092;-66
2021/05/19 03:03:25;;;;;;;2.40;0.60;;;14.80;79.90;;;;;;5111123;28;20020;-65
2021/05/19 03:05:51;;;;;;;1.67;0.30;;;14.80;78.20;;;;;;5112906;28;20078;-66
2021/05/19 03:08:17;;;;;;;0.90;0.32;;;14.70;77.10;;;;;;5113675;28;20464;-66
2021/05/19 03:10:43;;;;;;;1.23;0.40;;;14.70;76.20;;;;;;5116447;28;20032;-66
2021/05/19 03:13:08;;;;;;;2.40;0.20;;;14.60;75.70;;;;;;5116680;28;20383;-66
2021/05/19 03:15:34;;;;;;;0.45;0.20;;;14.60;75.70;;;;;;5116678;28;20049;-65
2021/05/19 03:18:00;;;;;;;0.30;0.20;;;14.60;75.30;;;;;;5116600;28;20027;-66
2021/05/19 03:20:27;;;;;;;0.20;0.20;;;14.50;75.30;;;;;;5115785;27;20060;-66
2021/05/19 03:22:53;;;;;;;0.08;0.05;;;14.50;74.80;;;;;;5115153;28;20484;-66
2021/05/19 03:25:19;;;;;;;2.42;0.20;;;14.50;74.90;;;;;;5116210;28;20107;-65
2021/05/19 03:27:44;;;;;;;1.40;0.30;;;14.40;74.70;;;;;;5116167;28;20028;-66
2021/05/19 03:30:13;;;;;;;0.63;0.20;;;14.40;73.30;;;;;;5116165;28;20494;-65
2021/05/19 03:32:40;;;;;;;0.20;0.10;;;14.40;72.90;;;;;;5115934;28;20039;-66
2021/05/19 03:35:07;;;;;;;0.95;0.10;;;14.30;72.30;;;;;;5115912;28;20043;-65
2021/05/19 03:37:34;;;;;;;0.82;0.00;;;14.30;72.70;;;;;;5116356;28;20032;-66
2021/05/19 03:40:00;;;;;;;0.10;0.00;;;14.20;73.00;;;;;;5116373;28;20492;-65
2021/05/19 03:42:26;;;;;;;0.10;0.10;;;14.10;73.40;;;;;;5116097;28;20053;-66
2021/05/19 03:44:52;;;;;;;2.53;0.13;;;14.10;73.60;;;;;;5115988;28;20116;-66
2021/05/19 03:47:17;;;;;;;0.22;0.10;;;14.00;73.70;;;;;;5114556;28;20129;-66
2021/05/19 03:49:43;;;;;;;0.03;0.03;;;14.00;73.20;;;;;;5115377;28;20505;-66
2021/05/19 03:52:09;;;;;;;0.10;0.00;;;14.00;74.10;;;;;;5115779;28;20075;-65
2021/05/19 03:54:36;;;;;;;0.10;0.08;;;13.90;72.70;;;;;;5116089;28;20023;-66
2021/05/19 03:57:04;;;;;;;2.55;0.10;;;13.90;72.50;;;;;;5115555;28;20369;-66
2021/05/19 03:59:31;;;;;;;0.20;0.10;;;13.90;72.80;;;;;;5114573;28;20463;-66
2021/05/19 04:01:57;;;;;;;2.47;0.10;;;13.80;73.60;;;;;;5114686;28;20047;-66
2021/05/19 04:04:22;;;;;;;0.40;0.10;;;13.80;74.70;;;;;;5115660;28;20103;-66
2021/05/19 04:06:48;;;;;;;0.38;0.17;;;13.80;75.50;;;;;;5115634;27;20027;-66
2021/05/19 04:09:14;;;;;;;0.98;0.30;;;13.70;75.00;;;;;;5115480;28;20091;-66
2021/05/19 04:11:40;;;;;;;0.30;0.20;;;13.80;74.70;;;;;;5113933;28;20399;-66
2021/05/19 04:14:06;;;;;;;0.65;0.20;;;13.80;73.60;;;;;;5115087;27;20426;-66
2021/05/19 04:16:32;;;;;;;0.77;0.20;;;13.80;73.30;;;;;;5115331;28;20024;-65
2021/05/19 04:18:58;;;;;;;0.10;0.10;;;13.80;72.30;;;;;;5115139;28;20076;-66
2021/05/19 04:21:24;;;;;;;0.10;0.10;;;13.80;73.00;;;;;;5114904;28;20028;-66
2021/05/19 04:23:49;;;;;;;1.88;0.20;;;13.70;72.90;;;;;;5115307;28;20028;-66
2021/05/19 04:26:15;;;;;;;0.43;0.08;;;13.80;73.20;;;;;;5115078;28;20035;-65
2021/05/19 04:28:41;;;;;;;2.40;0.20;;;13.70;71.80;;;;;;5114954;28;20024;-66
2021/05/19 04:31:07;;;;;;;0.45;0.17;;;13.70;71.90;;;;;;5114893;28;20035;-65
2021/05/19 04:33:33;;;;;;;0.57;0.20;;;13.80;72.00;;;;;;5114938;27;20098;-65
2021/05/19 04:35:59;;;;;;;0.10;0.10;;;13.70;72.50;;;;;;5114085;28;20030;-66
2021/05/19 04:38:25;;;;;;;0.57;0.20;;;13.60;73.30;;;;;;5114676;28;20098;-65
2021/05/19 04:40:51;;;;;;;0.68;0.20;;;13.60;74.20;;;;;;5114745;27;20065;-66
2021/05/19 04:43:18;;;;;;;2.03;0.20;;;13.60;75.50;;;;;;5114851;28;20108;-66
2021/05/19 04:45:43;;;;;;;0.40;0.20;;;13.60;75.70;;;;;;5114825;28;20067;-66
2021/05/19 04:48:10;;;;;;;1.20;0.20;;;13.60;74.80;;;;;;5114828;28;20047;-66
2021/05/19 04:50:36;;;;;;;0.20;0.10;;;13.60;74.70;;;;;;5114745;28;20020;-65
2021/05/19 04:53:02;;;;;;;0.13;0.13;;;13.60;73.10;;;;;;5114458;28;20364;-65
2021/05/19 04:55:27;;;;;;;0.10;0.10;;;13.60;72.80;;;;;;5114346;28;20020;-66
2021/05/19 04:57:53;;;;;;;1.52;0.15;;;13.60;71.40;;;;;;5113200;28;20032;-66
2021/05/19 05:00:20;;;;;;;0.10;0.10;;;13.60;71.50;;;;;;5114051;28;20040;-66
2021/05/19 05:02:46;;;;;;;0.40;0.10;;;13.70;69.10;;;;;;5114628;28;20094;-66
2021/05/19 05:05:12;;;;;;;0.10;0.10;;;13.60;69.40;;;;;;5114680;28;20066;-66
2021/05/19 05:07:38;;;;;;;0.10;0.10;;;13.60;71.80;;;;;;5114544;28;20026;-66
2021/05/19 05:10:05;;;;;;;0.20;0.10;;;13.60;73.10;;;;;;5114136;28;20024;-66
2021/05/19 05:12:32;;;;;;;0.38;0.20;;;13.60;73.30;;;;;;5113691;28;20036;-66
2021/05/19 05:14:58;;;;;;;0.10;0.10;;;13.60;74.70;;;;;;5114080;28;20016;-66
2021/05/19 05:17:23;;;;;;;0.20;0.20;;;13.60;75.10;;;;;;5114211;28;20102;-66
2021/05/19 05:19:49;;;;;;;0.82;0.28;;;13.60;77.20;;;;;;5114049;28;20020;-66
2021/05/19 05:22:15;;;;;;;0.77;0.20;;;13.50;76.10;;;;;;5114088;28;20016;-66
2021/05/19 05:24:40;;;;;;;0.20;0.20;;;13.50;77.10;;;;;;5114030;28;20032;-66
2021/05/19 05:27:06;;;;;;;1.10;0.30;;;13.50;76.00;;;;;;5114096;28;20027;-66
2021/05/19 05:29:32;;;;;;;3.33;0.40;;;13.50;76.10;;;;;;5113972;28;20043;-66
2021/05/19 05:31:58;;;;;;;1.25;0.47;;;13.50;76.50;;;;;;5113771;28;20039;-66
2021/05/19 05:34:24;;;;;;;0.25;0.20;;;13.50;76.20;;;;;;5113997;28;20020;-66
2021/05/19 05:36:50;;;;;;;1.00;0.28;;;13.50;76.90;;;;;;5114192;28;20028;-65
2021/05/19 05:39:16;;;;;;;0.88;0.30;;;13.50;77.60;;;;;;5113980;28;20027;-65
2021/05/19 05:41:42;;;;;;;1.35;0.30;;;13.50;77.40;;;;;;5113965;28;20027;-65
2021/05/19 05:44:08;;;;;;;0.57;0.30;;;13.50;77.90;;;;;;5113693;28;20039;-65
2021/05/19 05:46:34;;;;;;;4.82;0.30;;;13.40;78.10;;;;;;5113243;28;20062;-64
2021/05/19 05:49:00;;;;;;;0.82;0.20;;;13.40;76.70;;;;;;5113145;28;20027;-65
2021/05/19 05:51:26;;;;;;;2.20;0.40;;;13.40;78.00;;;;;;5113437;28;20123;-64
2021/05/19 05:53:52;;;;;;;0.82;0.25;;;13.40;77.90;;;;;;5113152;28;20024;-66
2021/05/19 05:56:18;;;;;;;1.98;0.40;;;13.40;78.30;;;;;;5112502;28;20371;-65
2021/05/19 05:58:44;;;;;;;0.10;0.10;;;13.30;78.60;;;;;;5112997;28;20042;-64
2021/05/19 06:01:11;;;;;;;0.47;0.20;;;13.40;79.00;;;;;;5112971;28;20052;-65
2021/05/19 06:03:37;;;;;;;1.17;0.30;;;13.40;78.40;;;;;;5112933;28;20475;-65
2021/05/19 06:06:03;;;;;;;0.35;0.10;;;13.40;76.70;;;;;;5113049;28;20411;-65
2021/05/19 06:08:29;;;;;;;0.10;0.10;;;13.40;76.40;;;;;;5113027;28;20019;-64
2021/05/19 06:10:55;;;;;;;0.10;0.10;;;13.30;77.80;;;;;;5112549;28;20043;-64
2021/05/19 06:13:21;;;;;;;1.10;0.20;;;13.40;78.20;;;;;;5112026;28;20030;-65
2021/05/19 06:15:47;;;;;;;0.20;0.13;;;13.40;78.00;;;;;;5111398;28;20107;-64
2021/05/19 06:18:13;;;;;;;0.85;0.20;;;13.40;79.10;;;;;;5111978;28;20027;-65
2021/05/19 06:20:39;;;;;;;0.45;0.22;;;13.40;79.20;;;;;;5113304;28;20028;-65
2021/05/19 06:23:05;;;;;;;0.20;0.20;;;13.40;79.70;;;;;;5113235;28;20153;-64
2021/05/19 06:25:31;;;;;;;0.32;0.20;;;13.40;80.30;;;;;;5113093;28;20344;-64
2021/05/19 06:27:57;;;;;;;0.45;0.30;;;13.40;79.70;;;;;;5112810;28;20422;-64
2021/05/19 06:30:22;;;;;;;0.38;0.30;;;13.40;80.10;;;;;;5112758;28;20102;-64
2021/05/19 06:32:48;;;;;;;2.38;0.40;;;13.40;80.00;;;;;;5113462;28;20042;-64
2021/05/19 06:35:14;;;;;;;2.65;0.43;;;13.50;80.40;;;;;;5112447;28;20027;-65
2021/05/19 06:37:40;;;;;;;0.52;0.40;;;13.50;79.30;;;;;;5112630;28;20027;-66
2021/05/19 06:40:06;;;;;;;1.15;0.50;;;13.40;79.70;;;;;;5112729;28;20421;-65
2021/05/19 06:42:32;;;;;;;0.95;0.57;;;13.40;80.50;;;;;;5112962;28;20028;-65
2021/05/19 06:44:58;;;;;;;0.68;0.40;;;13.40;80.90;;;;;;5116889;28;20016;-65
2021/05/19 06:47:24;;;;;;;2.17;0.30;;;13.50;80.90;;;;;;5117404;28;20106;-66
2021/05/19 06:49:52;;;;;;;0.90;0.28;;;13.50;80.10;;;;;;5116679;28;20031;-66
2021/05/19 06:52:18;;;;;;;0.43;0.30;;;13.50;80.80;;;;;;5116712;28;20067;-65
2021/05/19 06:54:44;;;;;;;0.55;0.20;;;13.50;81.30;;;;;;5117712;27;20058;-65
2021/05/19 06:57:09;;;;;;;0.38;0.20;;;13.50;79.50;;;;;;5116652;27;20028;-65
2021/05/19 06:59:35;;;;;;;0.20;0.20;;;13.40;78.40;;;;;;5116330;28;20026;-66
2021/05/19 07:02:01;;;;;;;0.47;0.20;;;13.40;78.40;;;;;;5116628;28;20092;-65
2021/05/19 07:04:27;;;;;;;2.50;0.30;;;13.30;79.10;;;;;;5116849;28;20028;-64
2021/05/19 07:06:52;;;;;;;0.65;0.20;;;13.30;79.80;;;;;;5116353;28;20016;-64
2021/05/19 07:09:19;;;;;;;0.60;0.30;;;13.30;79.50;;;;;;5116572;28;20030;-65
2021/05/19 07:11:45;;;;;;;2.30;0.40;;;13.30;79.30;;;;;;5116308;28;20036;-65
2021/05/19 07:14:16;;;;;;;0.28;0.10;;;13.30;79.80;;;;;;5116866;28;20023;-64
2021/05/19 07:16:53;;;;;;;0.20;0.20;;;13.30;79.40;;;;;;5116364;28;20035;-65
2021/05/19 07:19:20;;;;;;;0.40;0.40;;;13.30;80.90;;;;;;5115326;28;20027;-65
2021/05/19 07:21:45;;;;;;;1.17;0.40;;;13.30;82.00;;;;;;5115640;28;20032;-65
2021/05/19 07:24:12;;;;;;;5.25;0.40;;;13.40;82.10;;;;;;5116514;28;20020;-64
2021/05/19 07:26:42;;;;;;;5.15;0.65;;;13.40;82.40;;;;;;5116331;28;20019;-64
2021/05/19 07:29:10;;;;;;;5.38;0.60;;;13.40;82.90;;;;;;5116266;28;20016;-64
2021/05/19 07:31:36;;;;;;;3.47;1.42;;;13.50;83.10;;;;;;5116147;28;20065;-64
2021/05/19 07:34:02;;;;;;;5.18;2.92;;;13.60;83.20;;;;;;5115270;28;20102;-65
2021/05/19 07:36:28;;;;;;;5.07;2.88;;;13.60;83.10;;;;;;5114890;28;20383;-64
2021/05/19 07:38:55;;;;;;;6.82;3.10;;;13.60;83.00;;;;;;5115979;28;20099;-65
2021/05/19 07:41:21;;;;;;;6.63;1.13;;;13.70;83.10;;;;;;5115971;28;20102;-64
2021/05/19 07:43:47;;;;;;;4.43;1.00;;;13.70;82.50;;;;;;5115859;28;20043;-64
2021/05/19 07:46:13;;;;;;;4.00;1.08;;;13.80;82.80;;;;;;5115605;28;20023;-65
2021/05/19 07:48:39;;;;;;;6.15;1.08;;;13.80;82.50;;;;;;5116032;28;20039;-65
2021/05/19 07:51:05;;;;;;;1.58;1.08;;;13.80;82.50;;;;;;5115800;28;20440;-64
2021/05/19 07:53:30;;;;;;;2.92;1.00;;;13.80;82.90;;;;;;5115397;28;20365;-64
2021/05/19 07:58:45;;;;;;;2.35;0.80;;;13.80;83.30;;;;;;5115398;28;20034;-64
2021/05/19 08:03:57;;;;;;;0.80;0.45;;;13.90;83.50;;;;;;5083273;28;20032;-64
2021/05/19 08:06:22;;;;;;;1.27;0.60;;;13.90;83.70;;;;;;5115326;28;20024;-65
2021/05/19 08:08:48;;;;;;;3.65;0.52;;;13.90;83.00;;;;;;5115523;28;20110;-64
2021/05/19 08:11:17;;;;;;;1.55;0.60;;;13.90;82.90;;;;;;5115225;28;20035;-65
2021/05/19 08:13:49;;;;;;;3.17;0.45;;;13.90;83.20;;;;;;5114963;28;20463;-67
2021/05/19 08:16:15;;;;;;;3.97;0.82;;;13.90;83.30;;;;;;5115120;28;20152;-65
2021/05/19 08:18:42;;;;;;;4.88;0.73;;;14.00;83.60;;;;;;5114928;28;20020;-65
2021/05/19 08:21:08;;;;;;;2.50;0.57;;;14.00;83.60;;;;;;5115109;28;20023;-65
2021/05/19 08:23:34;;;;;;;1.63;0.50;;;14.00;83.10;;;;;;5115169;28;20472;-66
2021/05/19 08:26:00;;;;;;;1.40;0.40;;;14.00;83.20;;;;;;5115236;27;20034;-65
2021/05/19 08:28:25;;;;;;;1.77;0.60;;;14.00;83.30;;;;;;5115386;28;20020;-65
2021/05/19 08:30:52;;;;;;;2.75;0.70;;;14.00;83.60;;;;;;5115245;27;20062;-64
2021/05/19 08:33:17;;;;;;;1.23;0.70;;;14.00;84.00;;;;;;5115104;28;20038;-70
2021/05/19 08:35:43;;;;;;;2.42;0.85;;;14.00;83.60;;;;;;5114943;28;20103;-64
2021/05/19 08:38:09;;;;;;;0.68;0.40;;;14.10;83.60;;;;;;5115165;28;20040;-64
2021/05/19 08:40:35;;;;;;;3.80;0.60;;;14.10;83.30;;;;;;5115128;28;20107;-64
2021/05/19 08:43:01;;;;;;;3.35;0.98;;;14.10;83.20;;;;;;5115215;28;20032;-64
2021/05/19 08:45:27;;;;;;;5.40;0.50;;;14.10;83.00;;;;;;5115024;28;20515;-64
2021/05/19 08:48:02;;;;;;;1.85;0.50;;;14.10;83.10;;;;;;5114887;28;20031;-64
2021/05/19 08:50:32;;;;;;;2.60;0.50;;;14.20;82.10;;;;;;5114765;28;20066;-64
2021/05/19 08:52:59;;;;;;;2.28;0.70;;;14.10;81.00;;;;;;5114785;28;20055;-64
2021/05/19 08:55:26;;;;;;;4.15;0.63;;;14.10;80.60;;;;;;5114775;28;20020;-64
2021/05/19 08:57:52;;;;;;;2.05;0.55;;;14.10;80.70;;;;;;5114755;28;20016;-65
2021/05/19 09:00:19;;;;;;;3.33;0.45;;;14.00;80.60;;;;;;5114391;27;20070;-64
2021/05/19 09:03:11;;;;;;;1.17;0.40;;;14.00;80.00;;;;;;5114866;28;20023;-64
2021/05/19 09:05:39;;;;;;;0.73;0.38;;;14.00;79.60;;;;;;5109420;28;20032;-64
2021/05/19 09:08:16;;;;;;;1.90;0.60;;;14.00;80.30;;;;;;5114022;28;20105;-63
2021/05/19 09:10:43;;;;;;;3.97;0.40;;;14.00;80.80;;;;;;5113812;28;20024;-64
2021/05/19 09:13:33;;;;;;;1.27;0.52;;;14.00;80.40;;;;;;5113693;28;20032;-64
2021/05/19 09:16:00;;;;;;;0.98;0.40;;;14.10;80.90;;;;;;5113455;28;20042;-64
2021/05/19 09:18:58;;;;;;;4.10;0.70;;;14.00;82.20;;;;;;5113917;28;20023;-64
2021/05/19 09:21:38;;;;;;;2.60;0.95;;;14.00;82.00;;;;;;5091054;28;20024;-64
2021/05/19 09:24:12;;;;;;;1.50;0.50;;;14.10;82.30;;;;;;5114416;28;20441;-66
2021/05/19 09:27:10;;;;;;;2.60;0.57;;;14.10;82.70;;;;;;5112569;28;20399;-66
2021/05/19 09:29:38;;;;;;;4.07;0.45;;;14.10;83.10;;;;;;5090463;28;20032;-63
2021/05/19 09:32:10;;;;;;;1.10;0.47;;;14.10;82.80;;;;;;5114034;28;20027;-65
2021/05/19 09:34:38;;;;;;;3.28;0.60;;;14.10;81.70;;;;;;5111991;28;20506;-64
2021/05/19 09:37:26;;;;;;;0.95;0.40;;;14.10;82.00;;;;;;5113324;28;20051;-66
2021/05/19 09:39:54;;;;;;;1.35;0.40;;;14.10;81.30;;;;;;5113037;28;20063;-64
2021/05/19 09:42:23;;;;;;;1.10;0.30;;;14.20;77.10;;;;;;5113335;28;20054;-64
2021/05/19 09:44:50;;;;;;;1.30;0.45;;;14.10;75.90;;;;;;5112561;28;20430;-64
2021/05/19 09:47:39;;;;;;;1.77;0.47;;;14.10;76.30;;;;;;5112771;27;20039;-67
2021/05/19 09:50:07;;;;;;;0.90;0.40;;;14.10;76.20;;;;;;5112908;28;20026;-64
2021/05/19 09:52:33;;;;;;;0.52;0.35;;;14.10;73.50;;;;;;5112899;28;20038;-67
2021/05/19 09:55:04;;;;;;;1.02;0.45;;;;;;;;;;5112673;28;20090;-64
2021/05/19 09:57:43;;;;;;;0.52;0.43;;;14.00;72.00;;;;;;5113108;28;20066;-67
2021/05/19 10:00:11;;;;;;;1.45;0.50;;;14.00;73.30;;;;;;5112273;28;21147;-65
2021/05/19 10:02:37;;;;;;;0.95;0.40;;;14.00;74.10;;;;;;5111966;28;20705;-64
2021/05/19 10:05:19;;;;;;;0.68;0.40;;;13.90;74.50;;;;;;5112136;28;20102;-67
2021/05/19 10:07:44;;;;;;;1.38;0.65;;;13.90;74.20;;;;;;5112748;28;20483;-67
2021/05/19 10:10:10;;;;;;;0.60;0.50;;;13.90;75.00;;;;;;5112275;28;20035;-64
2021/05/19 10:12:40;;;;;;;1.30;0.70;;;13.90;75.40;;;;;;5112317;28;20064;-67
2021/05/19 10:15:13;;;;;;;1.20;0.50;;;13.90;76.10;;;;;;5112259;28;20024;-67
2021/05/19 10:17:42;;;;;;;1.92;0.60;;;13.90;77.00;;;;;;5114075;28;20028;-64
2021/05/19 10:20:11;;;;;;;1.35;0.50;;;13.90;77.10;;;;;;5116383;28;20106;-64
2021/05/19 10:22:39;;;;;;;5.72;0.70;;;13.90;76.40;;;;;;5117099;28;20035;-64
2021/05/19 10:25:07;;;;;;;5.43;0.90;;;13.90;76.00;;;;;;5117713;28;20024;-64
2021/05/19 10:27:50;;;;;;;8.80;1.05;;;13.90;75.10;;;;;;5116082;28;20015;-66
2021/05/19 10:30:38;;;;;;;6.30;1.05;;;13.90;75.40;;;;;;5115897;28;20027;-64
2021/05/19 10:33:06;;;;;;;9.52;1.75;;;13.90;75.90;;;;;;5115847;28;20028;-64
2021/05/19 10:35:34;;;;;;;4.80;0.80;;;13.90;76.40;;;;;;5117282;28;20085;-64
2021/05/19 10:38:26;;;;;;;5.88;0.77;;;14.00;76.20;;;;;;5116696;28;20077;-64
2021/05/19 10:40:58;;;;;;;2.33;0.40;;;14.00;76.20;;;;;;5116401;28;20027;-64
2021/05/19 10:43:46;;;;;;;5.90;0.60;;;14.00;76.90;;;;;;5116490;28;20065;-64
2021/05/19 10:46:13;;;;;;;1.75;0.40;;;14.00;76.70;;;;;;5115708;28;20027;-64
2021/05/19 10:48:39;;;;;;;2.33;0.57;;;14.00;76.50;;;;;;5115997;28;20032;-64
2021/05/19 10:51:33;;;;;;;2.97;0.73;;;14.00;76.40;;;;;;5116098;28;20027;-64
2021/05/19 11:00:09;;;;;;;1.75;0.47;;;14.10;77.20;;;;;;5116945;28;20085;-64
2021/05/19 11:02:53;;;;;;;0.77;0.50;;;14.10;77.40;;;;;;5117171;28;20047;-64
2021/05/19 11:05:20;;;;;;;0.50;0.40;;;14.10;77.60;;;;;;5116922;28;20019;-64
2021/05/19 11:08:04;;;;;;;2.03;0.40;;;14.10;77.70;;;;;;5116807;28;20035;-64
2021/05/19 11:10:30;;;;;;;2.83;0.50;;;14.10;77.60;;;;;;5116420;28;20090;-65
2021/05/19 11:12:56;;;;;;;3.08;0.40;;;14.20;77.80;;;;;;5115980;28;20039;-64
2021/05/19 11:20:53;;;;;;;1.20;0.27;;;14.20;76.90;;;;;;5115729;28;20088;-64
2021/05/19 11:23:19;;;;;;;1.88;0.30;;;14.20;76.40;;;;;;5114908;28;20039;-64
2021/05/19 11:25:46;;;;;;;0.65;0.30;;;14.20;76.00;;;;;;5115172;28;20068;-64
2021/05/19 11:28:13;;;;;;;1.20;0.40;;;14.30;75.60;;;;;;5114932;28;20028;-65
2021/05/19 11:30:40;;;;;;;0.55;0.30;;;14.20;75.70;;;;;;5114034;28;20573;-65
2021/05/19 11:33:10;;;;;;;0.93;0.50;;;14.20;75.50;;;;;;5115145;28;20026;-64
2021/05/19 11:35:37;;;;;;;1.52;0.30;;;14.20;75.30;;;;;;5115845;28;20414;-64
2021/05/19 11:38:05;;;;;;;1.48;0.40;;;14.20;75.40;;;;;;5116311;28;20028;-64
2021/05/19 11:40:53;;;;;;;1.45;0.40;;;14.20;75.60;;;;;;5116271;28;20024;-66
2021/05/19 11:43:20;;;;;;;0.65;0.30;;;14.30;76.10;;;;;;5116128;28;20032;-64
2021/05/19 11:45:52;;;;;;;0.40;0.30;;;14.30;75.80;;;;;;5116033;28;20019;-64
2021/05/19 11:48:20;;;;;;;0.20;0.20;;;14.30;75.30;;;;;;5116117;28;20456;-66
2021/05/19 11:50:46;;;;;;;1.60;0.38;;;14.30;75.70;;;;;;5115336;28;20112;-67
2021/05/19 11:53:13;;;;;;;0.50;0.35;;;14.40;75.60;;;;;;5115201;28;20463;-64
2021/05/19 11:55:49;;;;;;;0.85;0.30;;;14.40;75.90;;;;;;5114916;28;20106;-64
2021/05/19 11:58:16;;;;;;;1.15;0.38;;;14.50;76.40;;;;;;5114174;28;20026;-64
2021/05/19 12:00:42;;;;;;;0.75;0.20;;;14.50;75.60;;;;;;5114921;28;20050;-64
2021/05/19 12:03:08;;;;;;;0.32;0.30;;;14.50;75.60;;;;;;5115661;28;20028;-63
2021/05/19 12:05:45;;;;;;;0.10;0.10;;;14.60;75.20;;;;;;5115548;28;20093;-64
2021/05/19 12:08:13;;;;;;;0.50;0.20;;;14.60;74.50;;;;;;5114427;28;20046;-63
2021/05/19 12:10:40;;;;;;;1.13;0.10;;;14.60;75.00;;;;;;5115397;28;20080;-64
2021/05/19 12:13:06;;;;;;;0.28;0.20;;;14.70;74.80;;;;;;5115427;28;20059;-64
2021/05/19 12:15:33;;;;;;;1.63;0.30;;;14.70;74.30;;;;;;5115420;28;20073;-64
2021/05/19 12:17:59;;;;;;;0.80;0.20;;;14.80;74.40;;;;;;5115322;28;20036;-64
2021/05/19 12:20:26;;;;;;;0.43;0.30;;;14.80;74.40;;;;;;5115268;28;20548;-64
2021/05/19 12:22:59;;;;;;;1.63;0.20;;;14.90;72.30;;;;;;5115323;28;20388;-64
2021/05/19 12:25:24;;;;;;;0.57;0.25;;;14.90;71.90;;;;;;5115185;28;20418;-64
2021/05/19 12:27:52;;;;;;;1.05;0.40;;;14.90;71.20;;;;;;5114965;28;20024;-64
2021/05/19 12:30:19;;;;;;;0.40;0.28;;;15.00;71.00;;;;;;5115462;28;20035;-67
2021/05/19 12:33:05;;;;;;;0.82;0.20;;;15.00;71.50;;;;;;5114008;28;20468;-67
2021/05/19 12:35:30;;;;;;;0.60;0.30;;;15.00;71.90;;;;;;5114977;28;20107;-64
2021/05/19 12:38:07;;;;;;;0.50;0.20;;;15.10;71.60;;;;;;5114821;28;20111;-63
2021/05/19 12:40:35;;;;;;;0.77;0.40;;;15.20;71.40;;;;;;5113556;28;20114;-64
2021/05/19 12:43:05;;;;;;;0.30;0.30;;;15.20;71.00;;;;;;5114140;28;20016;-64
2021/05/19 12:45:36;;;;;;;1.88;0.40;;;15.20;71.70;;;;;;5114940;28;20099;-64
2021/05/19 12:48:09;;;;;;;0.80;0.40;;;15.30;71.40;;;;;;5115026;28;20080;-64
2021/05/19 12:50:47;;;;;;;0.95;0.60;;;15.30;71.60;;;;;;5114474;28;20495;-63
2021/05/19 12:53:33;;;;;;;2.33;0.57;;;15.30;72.90;;;;;;5113792;28;20069;-64
2021/05/19 12:56:06;;;;;;;1.42;0.70;;;15.30;73.40;;;;;;5113450;28;20032;-63
2021/05/19 12:58:50;;;;;;;3.75;0.50;;;15.40;73.70;;;;;;5113348;28;20027;-63
2021/05/19 13:01:16;;;;;;;2.35;0.70;;;15.50;74.20;;;;;;5114180;28;20055;-68
2021/05/19 13:03:42;;;;;;;1.15;0.55;;;15.60;74.50;;;;;;5114216;28;20027;-64
2021/05/19 13:06:08;;;;;;;0.73;0.50;;;15.70;74.80;;;;;;5113985;28;20114;-63
2021/05/19 13:08:35;;;;;;;3.47;0.80;;;15.70;74.00;;;;;;5111072;28;20023;-64
2021/05/19 13:11:05;;;;;;;1.70;0.70;;;15.80;73.90;;;;;;5110780;28;20034;-64
2021/05/19 13:16:04;;;;;;;3.15;0.70;;;15.80;73.10;;;;;;5114255;28;20443;-63
2021/05/19 13:21:16;;;;;;;0.65;0.40;;;15.90;72.60;;;;;;5113255;28;20081;-67